sensor_id;sensor_type;location;lat;lon;timestamp;P1;durP1;ratioP1;P2;durP2;ratioP2
77826;SDS011;67016;42.508;25.678;2023-04-25T00:00:45;27.73;;;20.20;;
77826;SDS011;67016;42.508;25.678;2023-04-25T00:03:11;29.55;;;20.35;;
77826;SDS011;67016;42.508;25.678;2023-04-25T00:05:36;30.75;;;21.05;;
77826;SDS011;67016;42.508;25.678;2023-04-25T00:08:02;29.77;;;21.75;;
77826;SDS011;67016;42.508;25.678;2023-04-25T00:10:28;33.83;;;22.98;;
77826;SDS011;67016;42.508;25.678;2023-04-25T00:12:54;32.40;;;23.25;;
77826;SDS011;67016;42.508;25.678;2023-04-25T00:15:20;28.10;;;21.33;;
77826;SDS011;67016;42.508;25.678;2023-04-25T00:17:47;28.40;;;21.23;;
77826;SDS011;67016;42.508;25.678;2023-04-25T00:20:12;31.55;;;21.25;;
77826;SDS011;67016;42.508;25.678;2023-04-25T00:22:38;27.58;;;21.58;;
77826;SDS011;67016;42.508;25.678;2023-04-25T00:25:05;30.33;;;20.45;;
77826;SDS011;67016;42.508;25.678;2023-04-25T00:27:31;28.77;;;20.95;;
77826;SDS011;67016;42.508;25.678;2023-04-25T00:29:57;28.30;;;20.85;;
77826;SDS011;67016;42.508;25.678;2023-04-25T00:32:22;27.52;;;20.13;;
77826;SDS011;67016;42.508;25.678;2023-04-25T00:34:48;27.77;;;20.38;;
77826;SDS011;67016;42.508;25.678;2023-04-25T00:37:14;25.63;;;20.02;;
77826;SDS011;67016;42.508;25.678;2023-04-25T00:39:39;24.15;;;18.77;;
77826;SDS011;67016;42.508;25.678;2023-04-25T00:42:05;29.73;;;20.50;;
77826;SDS011;67016;42.508;25.678;2023-04-25T00:44:31;34.00;;;20.65;;
77826;SDS011;67016;42.508;25.678;2023-04-25T00:47:00;24.45;;;19.55;;
77826;SDS011;67016;42.508;25.678;2023-04-25T00:49:27;29.10;;;20.35;;
77826;SDS011;67016;42.508;25.678;2023-04-25T00:51:52;31.35;;;20.15;;
77826;SDS011;67016;42.508;25.678;2023-04-25T00:54:18;28.33;;;20.92;;
77826;SDS011;67016;42.508;25.678;2023-04-25T00:56:44;27.50;;;20.00;;
77826;SDS011;67016;42.508;25.678;2023-04-25T00:59:10;28.88;;;20.48;;
77826;SDS011;67016;42.508;25.678;2023-04-25T01:01:36;28.50;;;19.15;;
77826;SDS011;67016;42.508;25.678;2023-04-25T01:04:03;24.70;;;18.77;;
77826;SDS011;67016;42.508;25.678;2023-04-25T01:06:28;24.00;;;19.73;;
77826;SDS011;67016;42.508;25.678;2023-04-25T01:08:55;31.52;;;21.45;;
77826;SDS011;67016;42.508;25.678;2023-04-25T01:11:21;29.38;;;22.83;;
77826;SDS011;67016;42.508;25.678;2023-04-25T01:13:47;31.27;;;20.98;;
77826;SDS011;67016;42.508;25.678;2023-04-25T01:16:12;30.75;;;22.40;;
77826;SDS011;67016;42.508;25.678;2023-04-25T01:18:38;34.42;;;23.35;;
77826;SDS011;67016;42.508;25.678;2023-04-25T01:21:06;34.65;;;21.83;;
77826;SDS011;67016;42.508;25.678;2023-04-25T01:23:36;28.77;;;19.65;;
77826;SDS011;67016;42.508;25.678;2023-04-25T01:26:03;28.65;;;20.55;;
77826;SDS011;67016;42.508;25.678;2023-04-25T01:28:29;31.52;;;23.10;;
77826;SDS011;67016;42.508;25.678;2023-04-25T01:30:55;28.55;;;18.60;;
77826;SDS011;67016;42.508;25.678;2023-04-25T01:33:21;56.83;;;35.10;;
77826;SDS011;67016;42.508;25.678;2023-04-25T01:35:47;33.47;;;20.17;;
77826;SDS011;67016;42.508;25.678;2023-04-25T01:38:13;27.73;;;20.30;;
77826;SDS011;67016;42.508;25.678;2023-04-25T01:40:40;25.52;;;19.02;;
77826;SDS011;67016;42.508;25.678;2023-04-25T01:43:05;26.63;;;20.27;;
77826;SDS011;67016;42.508;25.678;2023-04-25T01:45:33;32.03;;;20.67;;
77826;SDS011;67016;42.508;25.678;2023-04-25T01:48:01;24.60;;;19.20;;
77826;SDS011;67016;42.508;25.678;2023-04-25T01:50:27;27.00;;;19.42;;
77826;SDS011;67016;42.508;25.678;2023-04-25T01:52:53;30.70;;;21.20;;
77826;SDS011;67016;42.508;25.678;2023-04-25T01:55:19;27.75;;;18.73;;
77826;SDS011;67016;42.508;25.678;2023-04-25T01:57:44;23.77;;;17.75;;
77826;SDS011;67016;42.508;25.678;2023-04-25T02:00:10;25.67;;;17.38;;
77826;SDS011;67016;42.508;25.678;2023-04-25T02:02:36;22.83;;;18.13;;
77826;SDS011;67016;42.508;25.678;2023-04-25T02:05:02;24.92;;;16.70;;
77826;SDS011;67016;42.508;25.678;2023-04-25T02:07:28;23.88;;;16.73;;
77826;SDS011;67016;42.508;25.678;2023-04-25T02:09:53;19.38;;;14.80;;
77826;SDS011;67016;42.508;25.678;2023-04-25T02:12:19;21.45;;;15.10;;
77826;SDS011;67016;42.508;25.678;2023-04-25T02:14:44;28.15;;;20.13;;
77826;SDS011;67016;42.508;25.678;2023-04-25T02:17:10;24.77;;;16.60;;
77826;SDS011;67016;42.508;25.678;2023-04-25T02:19:37;25.13;;;17.02;;
77826;SDS011;67016;42.508;25.678;2023-04-25T02:22:03;21.13;;;17.90;;
77826;SDS011;67016;42.508;25.678;2023-04-25T02:24:29;36.65;;;25.27;;
77826;SDS011;67016;42.508;25.678;2023-04-25T02:26:55;38.03;;;24.80;;
77826;SDS011;67016;42.508;25.678;2023-04-25T02:29:21;27.85;;;20.58;;
77826;SDS011;67016;42.508;25.678;2023-04-25T02:31:46;25.90;;;16.90;;
77826;SDS011;67016;42.508;25.678;2023-04-25T02:34:12;22.88;;;18.75;;
77826;SDS011;67016;42.508;25.678;2023-04-25T02:36:38;22.95;;;18.00;;
77826;SDS011;67016;42.508;25.678;2023-04-25T02:39:03;23.45;;;16.77;;
77826;SDS011;67016;42.508;25.678;2023-04-25T02:41:30;29.05;;;19.00;;
77826;SDS011;67016;42.508;25.678;2023-04-25T02:43:55;22.30;;;17.60;;
77826;SDS011;67016;42.508;25.678;2023-04-25T02:46:21;25.92;;;17.92;;
77826;SDS011;67016;42.508;25.678;2023-04-25T02:48:46;23.98;;;17.40;;
77826;SDS011;67016;42.508;25.678;2023-04-25T02:51:12;23.35;;;15.00;;
77826;SDS011;67016;42.508;25.678;2023-04-25T02:53:38;22.40;;;15.68;;
77826;SDS011;67016;42.508;25.678;2023-04-25T02:56:04;21.77;;;14.98;;
77826;SDS011;67016;42.508;25.678;2023-04-25T02:58:30;18.73;;;14.55;;
77826;SDS011;67016;42.508;25.678;2023-04-25T03:00:56;20.92;;;14.63;;
77826;SDS011;67016;42.508;25.678;2023-04-25T03:03:21;17.38;;;13.40;;
77826;SDS011;67016;42.508;25.678;2023-04-25T03:05:50;18.83;;;13.65;;
77826;SDS011;67016;42.508;25.678;2023-04-25T03:08:16;18.88;;;14.20;;
77826;SDS011;67016;42.508;25.678;2023-04-25T03:10:43;19.50;;;14.68;;
77826;SDS011;67016;42.508;25.678;2023-04-25T03:13:09;26.42;;;17.58;;
77826;SDS011;67016;42.508;25.678;2023-04-25T03:15:35;20.58;;;16.35;;
77826;SDS011;67016;42.508;25.678;2023-04-25T03:18:01;24.52;;;16.30;;
77826;SDS011;67016;42.508;25.678;2023-04-25T03:20:27;23.13;;;15.98;;
77826;SDS011;67016;42.508;25.678;2023-04-25T03:22:53;25.40;;;15.85;;
77826;SDS011;67016;42.508;25.678;2023-04-25T03:25:18;21.70;;;16.73;;
77826;SDS011;67016;42.508;25.678;2023-04-25T03:27:44;27.00;;;16.23;;
77826;SDS011;67016;42.508;25.678;2023-04-25T03:30:09;19.65;;;13.30;;
77826;SDS011;67016;42.508;25.678;2023-04-25T03:32:36;17.10;;;13.00;;
77826;SDS011;67016;42.508;25.678;2023-04-25T03:35:01;19.02;;;12.68;;
77826;SDS011;67016;42.508;25.678;2023-04-25T03:37:28;25.45;;;13.38;;
77826;SDS011;67016;42.508;25.678;2023-04-25T03:39:54;23.27;;;14.07;;
77826;SDS011;67016;42.508;25.678;2023-04-25T03:42:20;25.40;;;13.73;;
77826;SDS011;67016;42.508;25.678;2023-04-25T03:44:48;18.83;;;12.88;;
77826;SDS011;67016;42.508;25.678;2023-04-25T03:47:14;17.40;;;12.52;;
77826;SDS011;67016;42.508;25.678;2023-04-25T03:49:40;23.75;;;14.60;;
77826;SDS011;67016;42.508;25.678;2023-04-25T03:52:07;19.48;;;14.20;;
77826;SDS011;67016;42.508;25.678;2023-04-25T03:54:33;23.58;;;14.20;;
77826;SDS011;67016;42.508;25.678;2023-04-25T03:56:58;18.65;;;14.02;;
77826;SDS011;67016;42.508;25.678;2023-04-25T03:59:24;20.42;;;13.48;;
77826;SDS011;67016;42.508;25.678;2023-04-25T04:01:51;18.90;;;13.55;;
77826;SDS011;67016;42.508;25.678;2023-04-25T04:04:17;18.35;;;12.57;;
77826;SDS011;67016;42.508;25.678;2023-04-25T04:06:43;20.92;;;13.48;;
77826;SDS011;67016;42.508;25.678;2023-04-25T04:09:09;21.17;;;13.48;;
77826;SDS011;67016;42.508;25.678;2023-04-25T04:11:36;26.50;;;16.25;;
77826;SDS011;67016;42.508;25.678;2023-04-25T04:14:04;18.67;;;14.48;;
77826;SDS011;67016;42.508;25.678;2023-04-25T04:16:31;19.85;;;13.90;;
77826;SDS011;67016;42.508;25.678;2023-04-25T04:18:56;18.88;;;13.77;;
77826;SDS011;67016;42.508;25.678;2023-04-25T04:21:22;18.02;;;12.57;;
77826;SDS011;67016;42.508;25.678;2023-04-25T04:23:47;20.45;;;14.65;;
77826;SDS011;67016;42.508;25.678;2023-04-25T04:26:13;20.40;;;14.15;;
77826;SDS011;67016;42.508;25.678;2023-04-25T04:28:41;20.77;;;13.60;;
77826;SDS011;67016;42.508;25.678;2023-04-25T04:31:09;21.27;;;14.50;;
77826;SDS011;67016;42.508;25.678;2023-04-25T04:33:35;16.38;;;13.02;;
77826;SDS011;67016;42.508;25.678;2023-04-25T04:36:02;19.08;;;11.85;;
77826;SDS011;67016;42.508;25.678;2023-04-25T04:38:28;16.17;;;11.50;;
77826;SDS011;67016;42.508;25.678;2023-04-25T04:40:54;18.00;;;12.20;;
77826;SDS011;67016;42.508;25.678;2023-04-25T04:43:21;20.15;;;12.75;;
77826;SDS011;67016;42.508;25.678;2023-04-25T04:45:48;15.07;;;12.18;;
77826;SDS011;67016;42.508;25.678;2023-04-25T04:48:14;16.60;;;12.65;;
77826;SDS011;67016;42.508;25.678;2023-04-25T04:50:40;20.63;;;13.98;;
77826;SDS011;67016;42.508;25.678;2023-04-25T04:53:06;20.02;;;12.75;;
77826;SDS011;67016;42.508;25.678;2023-04-25T04:55:32;18.90;;;14.05;;
77826;SDS011;67016;42.508;25.678;2023-04-25T04:57:57;16.33;;;13.32;;
77826;SDS011;67016;42.508;25.678;2023-04-25T05:00:23;15.13;;;12.07;;
77826;SDS011;67016;42.508;25.678;2023-04-25T05:02:49;15.98;;;11.95;;
77826;SDS011;67016;42.508;25.678;2023-04-25T05:05:14;15.43;;;11.40;;
77826;SDS011;67016;42.508;25.678;2023-04-25T05:07:40;21.00;;;12.57;;
77826;SDS011;67016;42.508;25.678;2023-04-25T05:10:06;17.63;;;11.95;;
77826;SDS011;67016;42.508;25.678;2023-04-25T05:12:32;17.77;;;11.77;;
77826;SDS011;67016;42.508;25.678;2023-04-25T05:14:57;15.77;;;11.60;;
77826;SDS011;67016;42.508;25.678;2023-04-25T05:17:23;13.68;;;10.88;;
77826;SDS011;67016;42.508;25.678;2023-04-25T05:19:49;15.10;;;10.82;;
77826;SDS011;67016;42.508;25.678;2023-04-25T05:22:15;11.88;;;10.02;;
77826;SDS011;67016;42.508;25.678;2023-04-25T05:24:40;16.58;;;10.75;;
77826;SDS011;67016;42.508;25.678;2023-04-25T05:27:06;15.25;;;9.98;;
77826;SDS011;67016;42.508;25.678;2023-04-25T05:29:31;13.25;;;9.50;;
77826;SDS011;67016;42.508;25.678;2023-04-25T05:31:57;12.10;;;10.00;;
77826;SDS011;67016;42.508;25.678;2023-04-25T05:34:23;15.18;;;12.15;;
77826;SDS011;67016;42.508;25.678;2023-04-25T05:36:48;15.20;;;11.05;;
77826;SDS011;67016;42.508;25.678;2023-04-25T05:39:15;20.63;;;11.20;;
77826;SDS011;67016;42.508;25.678;2023-04-25T05:41:41;15.27;;;10.63;;
77826;SDS011;67016;42.508;25.678;2023-04-25T05:44:07;14.98;;;10.93;;
77826;SDS011;67016;42.508;25.678;2023-04-25T05:46:33;16.05;;;10.35;;
77826;SDS011;67016;42.508;25.678;2023-04-25T05:48:58;11.02;;;9.50;;
77826;SDS011;67016;42.508;25.678;2023-04-25T05:51:24;14.52;;;9.77;;
77826;SDS011;67016;42.508;25.678;2023-04-25T05:53:51;12.32;;;8.90;;
77826;SDS011;67016;42.508;25.678;2023-04-25T05:56:16;9.88;;;8.40;;
77826;SDS011;67016;42.508;25.678;2023-04-25T05:58:42;12.10;;;8.25;;
77826;SDS011;67016;42.508;25.678;2023-04-25T06:01:08;13.18;;;9.52;;
77826;SDS011;67016;42.508;25.678;2023-04-25T06:03:34;13.15;;;8.20;;
77826;SDS011;67016;42.508;25.678;2023-04-25T06:06:00;11.23;;;8.32;;
77826;SDS011;67016;42.508;25.678;2023-04-25T06:08:25;19.05;;;8.73;;
77826;SDS011;67016;42.508;25.678;2023-04-25T06:10:51;16.30;;;10.05;;
77826;SDS011;67016;42.508;25.678;2023-04-25T06:13:17;19.38;;;11.95;;
77826;SDS011;67016;42.508;25.678;2023-04-25T06:15:42;14.73;;;9.75;;
77826;SDS011;67016;42.508;25.678;2023-04-25T06:18:08;14.10;;;8.70;;
77826;SDS011;67016;42.508;25.678;2023-04-25T06:20:34;14.77;;;9.60;;
77826;SDS011;67016;42.508;25.678;2023-04-25T06:22:59;22.70;;;10.95;;
77826;SDS011;67016;42.508;25.678;2023-04-25T06:25:25;10.27;;;7.95;;
77826;SDS011;67016;42.508;25.678;2023-04-25T06:27:50;12.63;;;8.73;;
77826;SDS011;67016;42.508;25.678;2023-04-25T06:30:16;12.15;;;7.32;;
77826;SDS011;67016;42.508;25.678;2023-04-25T06:32:47;9.98;;;7.57;;
77826;SDS011;67016;42.508;25.678;2023-04-25T06:35:13;11.38;;;7.68;;
77826;SDS011;67016;42.508;25.678;2023-04-25T06:37:38;10.98;;;8.15;;
77826;SDS011;67016;42.508;25.678;2023-04-25T06:40:04;10.98;;;8.18;;
77826;SDS011;67016;42.508;25.678;2023-04-25T06:42:31;16.70;;;9.52;;
77826;SDS011;67016;42.508;25.678;2023-04-25T06:44:56;13.48;;;8.80;;
77826;SDS011;67016;42.508;25.678;2023-04-25T06:47:22;15.93;;;9.45;;
77826;SDS011;67016;42.508;25.678;2023-04-25T06:49:47;10.38;;;8.40;;
77826;SDS011;67016;42.508;25.678;2023-04-25T06:52:13;10.30;;;7.00;;
77826;SDS011;67016;42.508;25.678;2023-04-25T06:54:38;8.07;;;5.93;;
77826;SDS011;67016;42.508;25.678;2023-04-25T06:57:04;8.80;;;6.43;;
77826;SDS011;67016;42.508;25.678;2023-04-25T06:59:30;11.77;;;6.47;;
77826;SDS011;67016;42.508;25.678;2023-04-25T07:01:55;9.82;;;6.85;;
77826;SDS011;67016;42.508;25.678;2023-04-25T07:04:21;9.15;;;6.88;;
77826;SDS011;67016;42.508;25.678;2023-04-25T07:06:47;9.60;;;7.20;;
77826;SDS011;67016;42.508;25.678;2023-04-25T07:09:14;8.70;;;6.70;;
77826;SDS011;67016;42.508;25.678;2023-04-25T07:11:40;8.27;;;5.88;;
77826;SDS011;67016;42.508;25.678;2023-04-25T07:14:07;9.57;;;6.07;;
77826;SDS011;67016;42.508;25.678;2023-04-25T07:16:32;9.27;;;6.32;;
77826;SDS011;67016;42.508;25.678;2023-04-25T07:18:58;14.43;;;6.40;;
77826;SDS011;67016;42.508;25.678;2023-04-25T07:21:24;11.95;;;6.57;;
77826;SDS011;67016;42.508;25.678;2023-04-25T07:23:50;8.07;;;6.00;;
77826;SDS011;67016;42.508;25.678;2023-04-25T07:26:16;11.02;;;6.93;;
77826;SDS011;67016;42.508;25.678;2023-04-25T07:28:42;7.45;;;6.10;;
77826;SDS011;67016;42.508;25.678;2023-04-25T07:31:08;10.00;;;6.85;;
77826;SDS011;67016;42.508;25.678;2023-04-25T07:33:34;9.75;;;5.57;;
77826;SDS011;67016;42.508;25.678;2023-04-25T07:35:59;10.23;;;6.35;;
77826;SDS011;67016;42.508;25.678;2023-04-25T07:38:27;8.43;;;6.97;;
77826;SDS011;67016;42.508;25.678;2023-04-25T07:40:52;8.05;;;5.90;;
77826;SDS011;67016;42.508;25.678;2023-04-25T07:43:18;8.75;;;6.93;;
77826;SDS011;67016;42.508;25.678;2023-04-25T07:45:44;9.52;;;7.35;;
77826;SDS011;67016;42.508;25.678;2023-04-25T07:48:10;12.32;;;7.53;;
77826;SDS011;67016;42.508;25.678;2023-04-25T07:50:35;9.88;;;7.72;;
77826;SDS011;67016;42.508;25.678;2023-04-25T07:53:02;10.57;;;8.07;;
77826;SDS011;67016;42.508;25.678;2023-04-25T07:55:31;7.40;;;6.32;;
77826;SDS011;67016;42.508;25.678;2023-04-25T07:57:58;10.70;;;6.82;;
77826;SDS011;67016;42.508;25.678;2023-04-25T08:00:24;10.13;;;7.93;;
77826;SDS011;67016;42.508;25.678;2023-04-25T08:02:50;8.90;;;6.55;;
77826;SDS011;67016;42.508;25.678;2023-04-25T08:05:16;10.70;;;5.97;;
77826;SDS011;67016;42.508;25.678;2023-04-25T08:07:42;7.55;;;6.18;;
77826;SDS011;67016;42.508;25.678;2023-04-25T08:10:09;8.98;;;6.63;;
77826;SDS011;67016;42.508;25.678;2023-04-25T08:12:34;10.00;;;6.47;;
77826;SDS011;67016;42.508;25.678;2023-04-25T08:15:00;13.23;;;6.70;;
77826;SDS011;67016;42.508;25.678;2023-04-25T08:17:26;10.48;;;5.60;;
77826;SDS011;67016;42.508;25.678;2023-04-25T08:19:51;7.35;;;5.80;;
77826;SDS011;67016;42.508;25.678;2023-04-25T08:22:17;8.88;;;6.35;;
77826;SDS011;67016;42.508;25.678;2023-04-25T08:24:44;7.38;;;5.40;;
77826;SDS011;67016;42.508;25.678;2023-04-25T08:27:09;5.68;;;4.88;;
77826;SDS011;67016;42.508;25.678;2023-04-25T08:29:35;9.10;;;4.88;;
77826;SDS011;67016;42.508;25.678;2023-04-25T08:32:00;10.63;;;5.18;;
77826;SDS011;67016;42.508;25.678;2023-04-25T08:34:27;11.60;;;6.18;;
77826;SDS011;67016;42.508;25.678;2023-04-25T08:36:53;10.88;;;6.40;;
77826;SDS011;67016;42.508;25.678;2023-04-25T08:39:18;8.88;;;5.70;;
77826;SDS011;67016;42.508;25.678;2023-04-25T08:41:47;7.57;;;5.55;;
77826;SDS011;67016;42.508;25.678;2023-04-25T08:44:12;7.47;;;4.55;;
77826;SDS011;67016;42.508;25.678;2023-04-25T08:46:38;8.00;;;5.85;;
77826;SDS011;67016;42.508;25.678;2023-04-25T08:49:08;10.30;;;4.78;;
77826;SDS011;67016;42.508;25.678;2023-04-25T08:51:39;6.95;;;4.78;;
77826;SDS011;67016;42.508;25.678;2023-04-25T08:54:11;11.23;;;5.28;;
77826;SDS011;67016;42.508;25.678;2023-04-25T08:56:40;8.85;;;4.82;;
77826;SDS011;67016;42.508;25.678;2023-04-25T08:59:08;5.20;;;4.03;;
77826;SDS011;67016;42.508;25.678;2023-04-25T09:01:34;6.45;;;4.60;;
77826;SDS011;67016;42.508;25.678;2023-04-25T09:04:00;7.07;;;3.90;;
77826;SDS011;67016;42.508;25.678;2023-04-25T09:06:27;7.55;;;5.18;;
77826;SDS011;67016;42.508;25.678;2023-04-25T09:08:53;12.05;;;5.40;;
77826;SDS011;67016;42.508;25.678;2023-04-25T09:11:19;7.72;;;5.75;;
77826;SDS011;67016;42.508;25.678;2023-04-25T09:13:45;12.48;;;5.80;;
77826;SDS011;67016;42.508;25.678;2023-04-25T09:16:10;10.00;;;5.15;;
77826;SDS011;67016;42.508;25.678;2023-04-25T09:18:36;6.97;;;4.70;;
77826;SDS011;67016;42.508;25.678;2023-04-25T09:23:41;6.90;;;3.95;;
77826;SDS011;67016;42.508;25.678;2023-04-25T09:26:09;7.03;;;4.65;;
77826;SDS011;67016;42.508;25.678;2023-04-25T09:28:35;7.03;;;4.55;;
77826;SDS011;67016;42.508;25.678;2023-04-25T09:31:01;6.32;;;4.43;;
77826;SDS011;67016;42.508;25.678;2023-04-25T09:33:32;7.43;;;6.15;;
77826;SDS011;67016;42.508;25.678;2023-04-25T09:36:02;10.55;;;6.07;;
77826;SDS011;67016;42.508;25.678;2023-04-25T09:38:32;12.65;;;7.35;;
77826;SDS011;67016;42.508;25.678;2023-04-25T09:41:09;8.98;;;7.25;;
77826;SDS011;67016;42.508;25.678;2023-04-25T09:43:37;8.45;;;6.65;;
77826;SDS011;67016;42.508;25.678;2023-04-25T09:46:07;9.95;;;6.88;;
77826;SDS011;67016;42.508;25.678;2023-04-25T09:48:35;9.95;;;6.45;;
77826;SDS011;67016;42.508;25.678;2023-04-25T09:51:05;8.52;;;5.70;;
77826;SDS011;67016;42.508;25.678;2023-04-25T09:53:41;10.95;;;6.47;;
77826;SDS011;67016;42.508;25.678;2023-04-25T09:56:19;10.07;;;7.53;;
77826;SDS011;67016;42.508;25.678;2023-04-25T09:58:45;8.05;;;6.35;;
77826;SDS011;67016;42.508;25.678;2023-04-25T10:01:12;6.75;;;5.88;;
77826;SDS011;67016;42.508;25.678;2023-04-25T10:03:38;7.18;;;6.43;;
77826;SDS011;67016;42.508;25.678;2023-04-25T10:06:08;9.07;;;6.28;;
77826;SDS011;67016;42.508;25.678;2023-04-25T10:08:38;11.13;;;6.25;;
77826;SDS011;67016;42.508;25.678;2023-04-25T10:11:04;10.43;;;6.90;;
77826;SDS011;67016;42.508;25.678;2023-04-25T10:13:32;26.88;;;8.45;;
77826;SDS011;67016;42.508;25.678;2023-04-25T10:15:59;18.70;;;9.13;;
77826;SDS011;67016;42.508;25.678;2023-04-25T10:18:26;24.42;;;7.68;;
77826;SDS011;67016;42.508;25.678;2023-04-25T10:20:53;19.20;;;4.88;;
77826;SDS011;67016;42.508;25.678;2023-04-25T10:23:20;16.92;;;5.75;;
77826;SDS011;67016;42.508;25.678;2023-04-25T10:25:46;10.13;;;5.03;;
77826;SDS011;67016;42.508;25.678;2023-04-25T10:28:11;12.15;;;5.57;;
77826;SDS011;67016;42.508;25.678;2023-04-25T10:30:37;9.18;;;3.55;;
77826;SDS011;67016;42.508;25.678;2023-04-25T10:33:03;3.83;;;2.15;;
77826;SDS011;67016;42.508;25.678;2023-04-25T10:35:42;16.85;;;6.38;;
77826;SDS011;67016;42.508;25.678;2023-04-25T10:38:10;11.18;;;4.78;;
77826;SDS011;67016;42.508;25.678;2023-04-25T10:40:37;6.20;;;4.10;;
77826;SDS011;67016;42.508;25.678;2023-04-25T10:45:56;21.88;;;6.53;;
77826;SDS011;67016;42.508;25.678;2023-04-25T10:48:28;9.70;;;4.53;;
77826;SDS011;67016;42.508;25.678;2023-04-25T10:51:10;24.83;;;5.10;;
77826;SDS011;67016;42.508;25.678;2023-04-25T10:53:45;24.20;;;12.00;;
77826;SDS011;67016;42.508;25.678;2023-04-25T10:59:02;10.70;;;5.43;;
77826;SDS011;67016;42.508;25.678;2023-04-25T11:01:29;14.75;;;6.50;;
77826;SDS011;67016;42.508;25.678;2023-04-25T11:04:02;13.43;;;8.40;;
77826;SDS011;67016;42.508;25.678;2023-04-25T11:08:53;4.65;;;3.63;;
77826;SDS011;67016;42.508;25.678;2023-04-25T11:11:18;6.95;;;4.65;;
77826;SDS011;67016;42.508;25.678;2023-04-25T11:13:51;8.77;;;5.15;;
77826;SDS011;67016;42.508;25.678;2023-04-25T11:16:16;7.93;;;4.50;;
77826;SDS011;67016;42.508;25.678;2023-04-25T11:18:43;11.60;;;4.90;;
77826;SDS011;67016;42.508;25.678;2023-04-25T11:21:09;9.80;;;5.40;;
77826;SDS011;67016;42.508;25.678;2023-04-25T11:23:35;9.63;;;5.13;;
77826;SDS011;67016;42.508;25.678;2023-04-25T11:26:02;14.35;;;8.05;;
77826;SDS011;67016;42.508;25.678;2023-04-25T11:28:28;9.77;;;5.82;;
77826;SDS011;67016;42.508;25.678;2023-04-25T11:30:54;7.05;;;3.92;;
77826;SDS011;67016;42.508;25.678;2023-04-25T11:33:23;6.68;;;3.78;;
77826;SDS011;67016;42.508;25.678;2023-04-25T11:35:50;6.82;;;4.32;;
77826;SDS011;67016;42.508;25.678;2023-04-25T11:38:18;15.40;;;9.18;;
77826;SDS011;67016;42.508;25.678;2023-04-25T11:40:44;12.52;;;8.25;;
77826;SDS011;67016;42.508;25.678;2023-04-25T11:43:09;5.00;;;3.53;;
77826;SDS011;67016;42.508;25.678;2023-04-25T11:45:36;4.72;;;3.78;;
77826;SDS011;67016;42.508;25.678;2023-04-25T11:48:02;3.45;;;2.60;;
77826;SDS011;67016;42.508;25.678;2023-04-25T11:50:28;5.93;;;3.22;;
77826;SDS011;67016;42.508;25.678;2023-04-25T11:52:55;5.85;;;2.58;;
77826;SDS011;67016;42.508;25.678;2023-04-25T11:55:21;5.97;;;3.65;;
77826;SDS011;67016;42.508;25.678;2023-04-25T11:57:48;5.88;;;4.05;;
77826;SDS011;67016;42.508;25.678;2023-04-25T12:00:16;5.28;;;2.65;;
77826;SDS011;67016;42.508;25.678;2023-04-25T12:02:43;6.95;;;2.40;;
77826;SDS011;67016;42.508;25.678;2023-04-25T12:05:10;8.20;;;5.30;;
77826;SDS011;67016;42.508;25.678;2023-04-25T12:07:36;5.50;;;3.70;;
77826;SDS011;67016;42.508;25.678;2023-04-25T12:10:10;10.73;;;7.18;;
77826;SDS011;67016;42.508;25.678;2023-04-25T12:12:37;9.70;;;5.03;;
77826;SDS011;67016;42.508;25.678;2023-04-25T12:17:48;5.05;;;3.45;;
77826;SDS011;67016;42.508;25.678;2023-04-25T12:20:16;5.88;;;2.20;;
77826;SDS011;67016;42.508;25.678;2023-04-25T12:22:44;7.72;;;3.55;;
77826;SDS011;67016;42.508;25.678;2023-04-25T12:25:56;4.95;;;2.90;;
77826;SDS011;67016;42.508;25.678;2023-04-25T12:28:14;8.55;;;5.78;;
77826;SDS011;67016;42.508;25.678;2023-04-25T12:31:06;5.32;;;4.20;;
77826;SDS011;67016;42.508;25.678;2023-04-25T12:33:35;7.90;;;4.15;;
77826;SDS011;67016;42.508;25.678;2023-04-25T12:36:05;3.97;;;2.95;;
77826;SDS011;67016;42.508;25.678;2023-04-25T12:38:37;3.58;;;1.88;;
77826;SDS011;67016;42.508;25.678;2023-04-25T12:41:06;15.57;;;11.50;;
77826;SDS011;67016;42.508;25.678;2023-04-25T12:43:32;16.88;;;12.75;;
77826;SDS011;67016;42.508;25.678;2023-04-25T12:45:58;8.70;;;4.80;;
77826;SDS011;67016;42.508;25.678;2023-04-25T12:48:24;16.95;;;12.57;;
77826;SDS011;67016;42.508;25.678;2023-04-25T12:50:49;1.95;;;1.50;;
77826;SDS011;67016;42.508;25.678;2023-04-25T12:53:17;2.00;;;1.55;;
77826;SDS011;67016;42.508;25.678;2023-04-25T12:55:43;3.78;;;1.90;;
77826;SDS011;67016;42.508;25.678;2023-04-25T12:58:11;2.00;;;1.90;;
77826;SDS011;67016;42.508;25.678;2023-04-25T13:00:36;1.83;;;1.73;;
77826;SDS011;67016;42.508;25.678;2023-04-25T13:03:02;2.65;;;1.70;;
77826;SDS011;67016;42.508;25.678;2023-04-25T13:05:29;4.35;;;1.95;;
77826;SDS011;67016;42.508;25.678;2023-04-25T13:07:55;3.90;;;2.35;;
77826;SDS011;67016;42.508;25.678;2023-04-25T13:10:21;2.80;;;1.85;;
77826;SDS011;67016;42.508;25.678;2023-04-25T13:12:46;2.90;;;2.22;;
77826;SDS011;67016;42.508;25.678;2023-04-25T13:15:12;3.75;;;2.17;;
77826;SDS011;67016;42.508;25.678;2023-04-25T13:17:38;3.20;;;2.33;;
77826;SDS011;67016;42.508;25.678;2023-04-25T13:20:06;2.28;;;1.98;;
77826;SDS011;67016;42.508;25.678;2023-04-25T13:22:37;2.58;;;1.83;;
77826;SDS011;67016;42.508;25.678;2023-04-25T13:25:03;4.80;;;3.20;;
77826;SDS011;67016;42.508;25.678;2023-04-25T13:27:30;9.10;;;3.70;;
77826;SDS011;67016;42.508;25.678;2023-04-25T13:29:58;3.63;;;2.55;;
77826;SDS011;67016;42.508;25.678;2023-04-25T13:32:23;4.35;;;2.33;;
77826;SDS011;67016;42.508;25.678;2023-04-25T13:34:50;2.72;;;2.47;;
77826;SDS011;67016;42.508;25.678;2023-04-25T13:37:16;2.78;;;2.53;;
77826;SDS011;67016;42.508;25.678;2023-04-25T13:39:42;3.20;;;2.72;;
77826;SDS011;67016;42.508;25.678;2023-04-25T13:42:07;7.43;;;3.10;;
77826;SDS011;67016;42.508;25.678;2023-04-25T13:44:33;8.50;;;3.63;;
77826;SDS011;67016;42.508;25.678;2023-04-25T13:46:58;35.72;;;21.52;;
77826;SDS011;67016;42.508;25.678;2023-04-25T13:49:25;14.20;;;4.85;;
77826;SDS011;67016;42.508;25.678;2023-04-25T13:51:51;6.85;;;3.38;;
77826;SDS011;67016;42.508;25.678;2023-04-25T13:54:17;7.22;;;3.47;;
77826;SDS011;67016;42.508;25.678;2023-04-25T13:56:42;9.90;;;4.45;;
77826;SDS011;67016;42.508;25.678;2023-04-25T13:59:08;27.58;;;17.05;;
77826;SDS011;67016;42.508;25.678;2023-04-25T14:01:33;28.85;;;21.35;;
77826;SDS011;67016;42.508;25.678;2023-04-25T14:04:00;7.03;;;4.88;;
77826;SDS011;67016;42.508;25.678;2023-04-25T14:06:27;4.18;;;3.78;;
77826;SDS011;67016;42.508;25.678;2023-04-25T14:08:53;4.68;;;3.38;;
77826;SDS011;67016;42.508;25.678;2023-04-25T14:11:18;7.38;;;5.13;;
77826;SDS011;67016;42.508;25.678;2023-04-25T14:13:44;14.27;;;10.75;;
77826;SDS011;67016;42.508;25.678;2023-04-25T14:16:10;10.07;;;4.72;;
77826;SDS011;67016;42.508;25.678;2023-04-25T14:18:36;9.98;;;6.65;;
77826;SDS011;67016;42.508;25.678;2023-04-25T14:21:02;4.65;;;3.40;;
77826;SDS011;67016;42.508;25.678;2023-04-25T14:23:27;5.13;;;2.88;;
77826;SDS011;67016;42.508;25.678;2023-04-25T14:28:45;4.60;;;3.65;;
77826;SDS011;67016;42.508;25.678;2023-04-25T14:31:11;5.35;;;4.10;;
77826;SDS011;67016;42.508;25.678;2023-04-25T14:33:37;4.35;;;3.50;;